KMFE/MFE METAR and TAF weather

Enter ICAO airport designator
Station Type Date Time Source
KMFE METAR 2022/11/27 07:53 UTC NOAA

KMFE 270753Z AUTO 15006KT 10SM CLR 12/11 A2994 RMK AO2 SLP136 T01220106


Station Type Date Time Source
KMFE Decoded METAR 2022/11/27 07:53 UTC NOAA

MCALLEN MILLER INTERNATIONAL AIRPORT , TX, United States (KMFE) 26-11N 98-15W 38M
Nov 27, 2022 - 02:53 AM EST / 2022.11.27 0753 UTC
Wind: from the SSE (150 degrees) at 7 MPH (6 KT):0
Visibility: 10 mile(s):0
Sky conditions: clear
Temperature: 54.0 F (12.2 C)
Dew Point: 51.1 F (10.6 C)
Relative Humidity: 89%
Pressure (altimeter): 29.94 in. Hg (1013 hPa)
ob: KMFE 270753Z AUTO 15006KT 10SM CLR 12/11 A2994 RMK AO2 SLP136 T01220106
cycle: 8

Station Type Date Time Source
KMFE TAF 2022/11/27 06:22 UTC NOAA

TAF KMFE 270520Z 2706/2806 18006KT P6SM SKC
FM280500 11003KT 6SM BR BKN015

Example: see airport list